createdAt,value
2022-10-31T00:00:14.058Z,90.60
2022-10-31T00:00:48.440Z,90.50
2022-10-31T00:01:27.354Z,90.50
2022-10-31T00:01:59.123Z,90.50
2022-10-31T00:02:30.996Z,90.50
2022-10-31T00:03:03.124Z,90.60
2022-10-31T00:03:35.066Z,90.50
2022-10-31T00:04:07.402Z,90.60
2022-10-31T00:04:39.188Z,90.20
2022-10-31T00:05:11.156Z,90.50
2022-10-31T00:05:45.208Z,90.20
2022-10-31T00:06:19.093Z,90.60
2022-10-31T00:06:50.921Z,90.50
2022-10-31T00:07:22.663Z,90.30
2022-10-31T00:07:54.521Z,90.20
2022-10-31T00:08:26.261Z,90.20
2022-10-31T00:09:01.218Z,90.90
2022-10-31T00:09:32.964Z,90.40
2022-10-31T00:10:05.206Z,90.70
2022-10-31T00:10:41.187Z,90.40
2022-10-31T00:11:13.008Z,90.50
2022-10-31T00:12:16.914Z,90.30
2022-10-31T00:12:48.650Z,90.50
2022-10-31T00:13:58.933Z,90.30
2022-10-31T00:14:30.653Z,90.30
2022-10-31T00:15:02.413Z,90.40
2022-10-31T00:15:38.767Z,90.50
2022-10-31T00:16:18.465Z,90.50
2022-10-31T00:16:50.285Z,90.70
2022-10-31T00:17:22.020Z,90.30
2022-10-31T00:17:53.779Z,90.30
2022-10-31T00:18:25.521Z,90.30
2022-10-31T00:19:00.000Z,90.40
2022-10-31T00:19:31.884Z,90.40
2022-10-31T00:20:04.258Z,90.80
2022-10-31T00:20:36.235Z,90.50
2022-10-31T00:21:08.010Z,90.20
2022-10-31T00:21:39.728Z,90.40
2022-10-31T00:22:11.652Z,90.40
2022-10-31T00:22:43.335Z,90.40
2022-10-31T00:23:15.038Z,90.50
2022-10-31T00:23:47.203Z,90.20
2022-10-31T00:24:19.030Z,90.20
2022-10-31T00:24:50.756Z,91.10
2022-10-31T00:25:22.548Z,90.50
2022-10-31T00:25:54.292Z,90.40
2022-10-31T00:26:28.785Z,90.20
2022-10-31T00:27:00.495Z,90.40
2022-10-31T00:27:32.839Z,90.40
2022-10-31T00:28:06.377Z,90.20
2022-10-31T00:28:38.304Z,90.40
2022-10-31T00:29:10.896Z,90.50
2022-10-31T00:29:42.665Z,90.40
2022-10-31T00:30:14.512Z,90.20
2022-10-31T00:30:47.011Z,90.40
2022-10-31T00:31:19.321Z,90.20
2022-10-31T00:32:23.335Z,90.20
2022-10-31T00:32:55.054Z,90.20
2022-10-31T00:33:26.974Z,90.20
2022-10-31T00:33:59.282Z,90.20
2022-10-31T00:34:32.193Z,90.40
2022-10-31T00:35:05.857Z,90.10
2022-10-31T00:35:37.625Z,90.50
2022-10-31T00:36:14.033Z,90.20
2022-10-31T00:36:46.316Z,90.50
2022-10-31T00:37:18.925Z,90.40
2022-10-31T00:37:50.759Z,90.50
2022-10-31T00:38:23.057Z,90.20
2022-10-31T00:38:54.834Z,90.50
2022-10-31T00:39:27.230Z,90.10
2022-10-31T00:39:59.024Z,90.20
2022-10-31T00:40:30.743Z,90.20
2022-10-31T00:41:02.585Z,90.20
2022-10-31T00:41:34.355Z,90.20
2022-10-31T00:42:06.097Z,90.20
2022-10-31T00:42:38.017Z,90.10
2022-10-31T00:43:42.743Z,90.10
2022-10-31T00:44:14.494Z,90.50
2022-10-31T00:44:46.247Z,90.40
2022-10-31T00:45:18.590Z,90.40
2022-10-31T00:45:51.325Z,90.20
2022-10-31T00:46:23.061Z,90.20
2022-10-31T00:46:56.105Z,90.20
2022-10-31T00:47:27.819Z,90.50
2022-10-31T00:47:59.809Z,90.40
2022-10-31T00:48:32.001Z,90.40
2022-10-31T00:49:03.757Z,90.40
2022-10-31T00:49:35.525Z,90.50
2022-10-31T00:50:08.383Z,90.40
2022-10-31T00:50:41.301Z,90.40
2022-10-31T00:51:13.410Z,90.40
2022-10-31T00:51:46.697Z,90.20
2022-10-31T00:52:18.441Z,90.20
2022-10-31T00:52:50.199Z,90.40
2022-10-31T00:53:22.401Z,90.20
2022-10-31T00:53:54.190Z,90.60
2022-10-31T00:54:26.005Z,91.00
2022-10-31T00:54:57.782Z,90.50
2022-10-31T00:55:29.612Z,90.20
2022-10-31T00:56:01.371Z,90.40
2022-10-31T00:56:33.541Z,90.20
2022-10-31T00:57:05.439Z,90.20
2022-10-31T00:57:37.188Z,91.50
2022-10-31T00:58:10.472Z,90.50
2022-10-31T00:58:42.943Z,90.30
2022-10-31T00:59:14.676Z,90.50
2022-10-31T00:59:46.862Z,90.50
2022-10-31T01:00:18.854Z,90.70
2022-10-31T01:00:57.392Z,90.20
2022-10-31T01:01:29.401Z,90.50
2022-10-31T01:02:01.486Z,90.80
2022-10-31T01:02:33.420Z,90.60
2022-10-31T01:03:06.246Z,90.60
2022-10-31T01:03:39.635Z,90.60
2022-10-31T01:04:15.387Z,90.30
2022-10-31T01:04:47.187Z,90.30
2022-10-31T01:05:19.465Z,90.80
2022-10-31T01:06:07.050Z,90.50
2022-10-31T01:06:38.853Z,90.50
2022-10-31T01:07:12.270Z,90.30
2022-10-31T01:07:44.097Z,90.50
2022-10-31T01:08:15.863Z,90.50
2022-10-31T01:08:49.232Z,90.30
2022-10-31T01:09:21.000Z,90.30
2022-10-31T01:09:53.638Z,90.60
2022-10-31T01:10:25.484Z,90.60
2022-10-31T01:11:18.231Z,90.60
2022-10-31T01:11:49.959Z,90.50
2022-10-31T01:12:21.777Z,90.30
2022-10-31T01:12:53.537Z,90.30
2022-10-31T01:13:27.564Z,90.30
2022-10-31T01:13:59.314Z,90.30
2022-10-31T01:14:31.081Z,90.60
2022-10-31T01:15:03.604Z,90.60
2022-10-31T01:15:35.339Z,90.30
2022-10-31T01:16:09.059Z,90.60
2022-10-31T01:16:40.810Z,90.70
2022-10-31T01:17:13.871Z,90.30
2022-10-31T01:17:45.654Z,90.30
2022-10-31T01:18:17.417Z,90.50
2022-10-31T01:18:49.347Z,90.30
2022-10-31T01:19:21.082Z,90.30
2022-10-31T01:19:52.828Z,90.30
2022-10-31T01:20:24.531Z,90.30
2022-10-31T01:21:07.700Z,90.60
2022-10-31T01:21:39.494Z,90.50
2022-10-31T01:22:11.257Z,90.30
2022-10-31T01:22:43.161Z,90.30
2022-10-31T01:23:14.929Z,90.70
2022-10-31T01:23:47.102Z,90.60
2022-10-31T01:24:19.233Z,90.90
2022-10-31T01:24:51.052Z,90.30
2022-10-31T01:25:24.645Z,90.60
2022-10-31T01:26:07.203Z,90.30
2022-10-31T01:26:39.114Z,90.50
2022-10-31T01:27:10.850Z,90.60
2022-10-31T01:27:42.572Z,90.70
2022-10-31T01:28:14.371Z,90.30
2022-10-31T01:29:08.722Z,90.30
2022-10-31T01:29:40.796Z,90.50
2022-10-31T01:30:13.009Z,90.30
2022-10-31T01:30:44.725Z,90.50
2022-10-31T01:31:18.648Z,90.60
2022-10-31T01:31:50.374Z,90.80
2022-10-31T01:32:22.182Z,90.30
2022-10-31T01:32:55.696Z,90.70
2022-10-31T01:33:27.448Z,90.30
2022-10-31T01:33:59.973Z,90.90
2022-10-31T01:34:31.847Z,90.30
2022-10-31T01:35:03.888Z,90.30
2022-10-31T01:35:35.625Z,90.30
2022-10-31T01:36:16.634Z,90.80
2022-10-31T01:36:52.009Z,90.50
2022-10-31T01:37:23.806Z,90.30
2022-10-31T01:37:55.615Z,90.30
2022-10-31T01:38:28.083Z,90.60
2022-10-31T01:39:05.401Z,90.70
2022-10-31T01:39:37.301Z,90.60
2022-10-31T01:40:09.847Z,90.60
2022-10-31T01:40:41.606Z,90.30
2022-10-31T01:41:15.880Z,90.50
2022-10-31T01:41:51.344Z,90.60
2022-10-31T01:42:24.350Z,90.50
2022-10-31T01:42:56.159Z,90.60
2022-10-31T01:43:48.446Z,90.50
2022-10-31T01:44:20.184Z,90.60
2022-10-31T01:45:01.822Z,90.60
2022-10-31T01:45:33.937Z,90.30
2022-10-31T01:46:05.858Z,90.60
2022-10-31T01:47:00.514Z,90.90
2022-10-31T01:47:39.408Z,90.90
2022-10-31T01:48:17.997Z,90.90
2022-10-31T01:48:50.481Z,90.60
2022-10-31T01:49:38.534Z,90.40
2022-10-31T01:50:27.717Z,90.60
2022-10-31T01:51:00.573Z,90.50
2022-10-31T01:51:39.627Z,90.60
2022-10-31T01:52:21.363Z,90.60
2022-10-31T01:52:53.728Z,90.30
2022-10-31T01:53:26.985Z,90.60
2022-10-31T01:54:05.170Z,90.80
2022-10-31T01:54:52.737Z,90.60
2022-10-31T01:55:30.408Z,90.60
2022-10-31T01:56:02.485Z,90.80
2022-10-31T01:56:39.376Z,90.90
2022-10-31T01:57:15.509Z,90.60
2022-10-31T01:57:52.157Z,90.60
2022-10-31T01:58:28.899Z,90.70
2022-10-31T01:59:02.751Z,91.10
2022-10-31T01:59:40.018Z,90.60
2022-10-31T02:00:13.393Z,90.70
2022-10-31T02:00:50.585Z,90.60
2022-10-31T02:01:22.646Z,90.70
2022-10-31T02:01:55.270Z,90.40
2022-10-31T02:02:30.654Z,90.40
2022-10-31T02:03:02.991Z,90.60
2022-10-31T02:03:35.331Z,90.40
2022-10-31T02:04:08.647Z,90.60
2022-10-31T02:04:41.045Z,90.60
2022-10-31T02:05:23.720Z,90.40
2022-10-31T02:05:57.866Z,90.60
2022-10-31T02:07:00.830Z,90.60
2022-10-31T02:07:40.071Z,90.70
2022-10-31T02:08:34.196Z,90.70
2022-10-31T02:09:07.044Z,90.70
2022-10-31T02:09:40.737Z,90.70
2022-10-31T02:10:12.595Z,90.70
2022-10-31T02:10:46.144Z,90.70
2022-10-31T02:11:17.927Z,90.70
2022-10-31T02:11:52.157Z,91.10
2022-10-31T02:12:25.145Z,90.50
2022-10-31T02:13:05.830Z,90.90
2022-10-31T02:13:41.021Z,91.00
2022-10-31T02:14:14.544Z,90.70
2022-10-31T02:14:47.208Z,90.70
2022-10-31T02:15:19.001Z,90.70
2022-10-31T02:15:55.066Z,90.70
2022-10-31T02:16:27.071Z,90.70
2022-10-31T02:16:59.110Z,91.10
2022-10-31T02:17:32.690Z,90.80
2022-10-31T02:18:05.920Z,90.70
2022-10-31T02:18:37.898Z,90.60
2022-10-31T02:19:18.081Z,91.00
2022-10-31T02:20:06.023Z,90.90
2022-10-31T02:20:55.839Z,90.80
2022-10-31T02:21:41.688Z,91.00
2022-10-31T02:22:54.412Z,90.80
2022-10-31T02:23:31.960Z,90.80
2022-10-31T02:24:27.488Z,90.60
2022-10-31T02:25:20.304Z,90.90
2022-10-31T02:26:12.860Z,90.90
2022-10-31T02:26:56.051Z,90.90
2022-10-31T02:27:49.643Z,90.90
2022-10-31T02:29:07.854Z,90.90
2022-10-31T02:30:10.267Z,90.90
2022-10-31T02:31:07.105Z,90.90
2022-10-31T02:31:59.341Z,90.90
2022-10-31T02:33:07.342Z,90.10
2022-10-31T02:33:58.366Z,90.90
2022-10-31T02:34:33.044Z,91.00
2022-10-31T02:35:22.877Z,91.10
2022-10-31T02:36:08.546Z,91.00
2022-10-31T02:36:48.340Z,90.80
2022-10-31T02:37:39.621Z,91.00
2022-10-31T02:38:17.303Z,90.90
2022-10-31T02:39:09.686Z,90.70
2022-10-31T02:39:58.045Z,90.90
2022-10-31T02:40:55.387Z,90.80
2022-10-31T02:42:04.008Z,91.00
2022-10-31T02:42:56.251Z,91.00
2022-10-31T02:43:36.460Z,91.00
2022-10-31T02:44:23.389Z,90.80
2022-10-31T02:45:06.871Z,91.10
2022-10-31T02:45:47.453Z,91.00
2022-10-31T02:46:39.695Z,91.10
2022-10-31T02:47:17.415Z,91.00
2022-10-31T02:47:51.873Z,91.00
2022-10-31T02:48:28.971Z,91.00
2022-10-31T02:49:11.535Z,91.00
2022-10-31T02:49:53.929Z,91.00
2022-10-31T02:50:32.544Z,90.90
2022-10-31T02:51:05.976Z,91.70
2022-10-31T02:51:39.628Z,90.80
2022-10-31T02:52:35.532Z,91.10
2022-10-31T02:53:10.288Z,91.30
2022-10-31T02:53:43.291Z,90.80
2022-10-31T02:54:25.401Z,90.80
2022-10-31T02:54:58.789Z,91.80
2022-10-31T02:55:30.497Z,91.10
2022-10-31T02:56:13.622Z,91.10
2022-10-31T02:56:45.438Z,91.00
2022-10-31T02:57:21.565Z,91.10
2022-10-31T02:57:58.421Z,91.10
2022-10-31T02:58:37.633Z,90.90
2022-10-31T02:59:09.538Z,91.10
2022-10-31T02:59:48.581Z,91.10
2022-10-31T03:00:20.424Z,91.10
2022-10-31T03:01:10.897Z,90.80
2022-10-31T03:02:05.869Z,90.80
2022-10-31T03:03:12.926Z,91.10
2022-10-31T03:03:59.277Z,91.00
2022-10-31T03:04:43.599Z,91.00
2022-10-31T03:05:33.595Z,91.10
2022-10-31T03:06:11.637Z,91.00
2022-10-31T03:07:15.258Z,91.00
2022-10-31T03:08:20.452Z,91.10
2022-10-31T03:09:25.664Z,91.10
2022-10-31T03:10:28.057Z,90.80
2022-10-31T03:11:06.126Z,91.10
2022-10-31T03:11:50.045Z,91.00
2022-10-31T03:12:36.067Z,91.40
2022-10-31T03:13:10.869Z,91.10
2022-10-31T03:13:51.544Z,90.80
2022-10-31T03:14:41.216Z,91.10
2022-10-31T03:15:20.495Z,91.00
2022-10-31T03:16:33.912Z,91.00
2022-10-31T03:17:16.280Z,91.10
2022-10-31T03:18:07.011Z,91.10
2022-10-31T03:18:44.798Z,91.00
2022-10-31T03:19:23.220Z,91.10
2022-10-31T03:20:00.918Z,91.10
2022-10-31T03:20:46.131Z,91.10
2022-10-31T03:21:35.076Z,91.00
2022-10-31T03:22:24.816Z,90.80
2022-10-31T03:22:59.296Z,91.00
2022-10-31T03:23:35.432Z,90.80
2022-10-31T03:24:10.425Z,92.10
2022-10-31T03:24:44.122Z,91.00
2022-10-31T03:25:17.661Z,91.20
2022-10-31T03:25:51.695Z,91.00
2022-10-31T03:26:26.193Z,91.10
2022-10-31T03:27:01.509Z,91.00
2022-10-31T03:27:38.829Z,91.10
2022-10-31T03:28:13.814Z,91.10
2022-10-31T03:28:53.261Z,91.30
2022-10-31T03:29:29.269Z,91.00
2022-10-31T03:30:05.743Z,91.00
2022-10-31T03:30:47.912Z,90.80
2022-10-31T03:31:26.628Z,91.00
2022-10-31T03:32:26.926Z,90.80
2022-10-31T03:33:03.485Z,91.00
2022-10-31T03:33:40.387Z,90.80
2022-10-31T03:34:14.355Z,91.30
2022-10-31T03:34:48.319Z,91.10
2022-10-31T03:35:25.890Z,91.00
2022-10-31T03:36:03.569Z,91.00
2022-10-31T03:36:39.276Z,91.00
2022-10-31T03:37:15.902Z,91.00
2022-10-31T03:37:50.687Z,91.30
2022-10-31T03:38:23.639Z,91.00
2022-10-31T03:38:57.646Z,90.70
2022-10-31T03:39:31.499Z,91.00
2022-10-31T03:40:07.922Z,91.20
2022-10-31T03:40:44.387Z,91.00
2022-10-31T03:41:22.343Z,91.10
2022-10-31T03:42:05.708Z,91.00
2022-10-31T03:42:42.843Z,90.80
2022-10-31T03:44:09.553Z,91.30
2022-10-31T03:44:53.709Z,91.00
2022-10-31T03:45:29.961Z,91.00
2022-10-31T03:46:02.135Z,91.00
2022-10-31T03:46:34.396Z,90.80
2022-10-31T03:47:06.352Z,91.00
2022-10-31T03:47:39.765Z,90.70
2022-10-31T03:48:13.697Z,91.40
2022-10-31T03:48:45.573Z,90.90
2022-10-31T03:49:17.974Z,91.00
2022-10-31T03:49:50.346Z,90.90
2022-10-31T03:50:25.016Z,91.00
2022-10-31T03:51:16.038Z,90.90
2022-10-31T03:52:00.792Z,90.90
2022-10-31T03:52:48.113Z,90.70
2022-10-31T03:53:40.392Z,90.70
2022-10-31T03:54:22.230Z,91.00
2022-10-31T03:55:31.184Z,90.90
2022-10-31T03:56:12.163Z,90.90
2022-10-31T03:56:57.121Z,90.90
2022-10-31T03:57:54.075Z,91.10
2022-10-31T03:58:33.397Z,90.90
2022-10-31T03:59:46.141Z,90.70
2022-10-31T04:00:20.986Z,90.90
2022-10-31T04:00:56.562Z,90.90
2022-10-31T04:01:32.125Z,90.90
2022-10-31T04:02:10.170Z,90.90
2022-10-31T04:02:54.562Z,90.70
2022-10-31T04:03:31.050Z,91.30
2022-10-31T04:04:07.536Z,91.00
2022-10-31T04:04:40.504Z,90.90
2022-10-31T04:05:16.229Z,90.70
2022-10-31T04:05:53.913Z,90.90
2022-10-31T04:06:27.235Z,90.90
2022-10-31T04:07:02.570Z,90.70
2022-10-31T04:07:40.866Z,91.10
2022-10-31T04:08:18.316Z,90.90
2022-10-31T04:08:57.212Z,90.90
2022-10-31T04:09:34.592Z,91.10
2022-10-31T04:10:10.519Z,90.90
2022-10-31T04:10:45.671Z,90.80
2022-10-31T04:11:22.061Z,90.90
2022-10-31T04:12:12.335Z,91.00
2022-10-31T04:13:10.979Z,90.60
2022-10-31T04:13:52.251Z,90.90
2022-10-31T04:14:32.141Z,90.90
2022-10-31T04:15:08.386Z,91.10
2022-10-31T04:15:43.213Z,90.90
2022-10-31T04:16:17.530Z,91.20
2022-10-31T04:16:49.895Z,91.10
2022-10-31T04:17:25.885Z,90.90
2022-10-31T04:18:01.212Z,90.80
2022-10-31T04:18:33.786Z,90.80
2022-10-31T04:19:05.635Z,90.90
2022-10-31T04:19:37.475Z,90.90
2022-10-31T04:20:09.717Z,90.90
2022-10-31T04:20:42.842Z,90.90
2022-10-31T04:21:16.324Z,90.90
2022-10-31T04:21:48.204Z,90.90
2022-10-31T04:22:20.000Z,90.00
2022-10-31T04:22:51.757Z,90.60
2022-10-31T04:23:28.281Z,90.90
2022-10-31T04:24:00.376Z,90.80
2022-10-31T04:24:35.232Z,90.90
2022-10-31T04:25:07.726Z,90.90
2022-10-31T04:25:39.508Z,90.00
2022-10-31T04:26:13.320Z,90.70
2022-10-31T04:26:45.096Z,90.60
2022-10-31T04:27:18.138Z,90.60
2022-10-31T04:27:49.888Z,90.80
2022-10-31T04:28:21.706Z,90.80
2022-10-31T04:28:53.436Z,90.50
2022-10-31T04:29:25.172Z,90.50
2022-10-31T04:29:57.024Z,90.50
2022-10-31T04:30:28.734Z,90.80
2022-10-31T04:31:00.911Z,90.60
2022-10-31T04:31:33.236Z,90.50
2022-10-31T04:32:05.140Z,90.70
2022-10-31T04:32:37.156Z,90.50
2022-10-31T04:33:09.737Z,90.70
2022-10-31T04:33:42.617Z,90.50
2022-10-31T04:34:14.393Z,90.50
2022-10-31T04:34:46.551Z,91.30
2022-10-31T04:35:18.336Z,90.80
2022-10-31T04:35:51.209Z,90.60
2022-10-31T04:36:23.784Z,90.50
2022-10-31T04:36:55.558Z,90.50
2022-10-31T04:37:27.373Z,90.50
2022-10-31T04:37:59.404Z,90.70
2022-10-31T04:38:31.408Z,90.50
2022-10-31T04:39:04.093Z,90.70
2022-10-31T04:39:50.835Z,90.70
2022-10-31T04:40:41.100Z,90.50
2022-10-31T04:41:31.564Z,90.50
2022-10-31T04:42:07.993Z,90.70
2022-10-31T04:42:39.780Z,90.70
2022-10-31T04:43:12.626Z,90.50
2022-10-31T04:43:44.674Z,90.70
2022-10-31T04:44:17.729Z,90.50
2022-10-31T04:44:53.804Z,90.50
2022-10-31T04:45:25.803Z,91.00
2022-10-31T04:45:58.961Z,90.50
2022-10-31T04:46:30.989Z,90.40
2022-10-31T04:47:04.023Z,90.70
2022-10-31T04:47:36.429Z,90.70
2022-10-31T04:48:08.172Z,90.50
2022-10-31T04:48:42.261Z,90.60
2022-10-31T04:49:14.033Z,90.90
2022-10-31T04:49:46.245Z,90.40
2022-10-31T04:50:19.060Z,90.40
2022-10-31T04:50:50.781Z,90.40
2022-10-31T04:51:22.517Z,90.70
2022-10-31T04:51:54.254Z,90.40
2022-10-31T04:52:26.147Z,89.80
2022-10-31T04:52:58.357Z,90.50
2022-10-31T04:53:33.420Z,90.40
2022-10-31T04:54:23.611Z,90.60
2022-10-31T04:55:16.367Z,90.40
2022-10-31T04:56:26.663Z,90.40
2022-10-31T04:57:03.326Z,90.40
2022-10-31T04:57:47.081Z,90.40
2022-10-31T04:58:19.227Z,90.40
2022-10-31T04:58:51.051Z,90.40
2022-10-31T04:59:23.668Z,90.40
2022-10-31T04:59:58.173Z,90.40
2022-10-31T05:00:30.194Z,90.40
2022-10-31T05:01:02.660Z,90.40
2022-10-31T05:01:34.713Z,90.30
2022-10-31T05:02:06.855Z,90.40
2022-10-31T05:02:53.582Z,90.30
2022-10-31T05:03:25.349Z,90.70
2022-10-31T05:03:57.110Z,90.40
2022-10-31T05:04:29.011Z,90.70
2022-10-31T05:05:01.222Z,90.40
2022-10-31T05:05:33.010Z,90.40
2022-10-31T05:06:08.840Z,90.70
2022-10-31T05:06:42.317Z,90.40
2022-10-31T05:07:14.232Z,90.40
2022-10-31T05:07:48.802Z,90.40
2022-10-31T05:08:21.600Z,90.40
2022-10-31T05:08:54.925Z,90.40
2022-10-31T05:09:26.785Z,90.40
2022-10-31T05:09:58.537Z,90.40
2022-10-31T05:10:31.608Z,90.40
2022-10-31T05:11:05.921Z,90.40
2022-10-31T05:11:38.872Z,90.80
2022-10-31T05:13:00.772Z,90.50
2022-10-31T05:14:10.926Z,90.70
2022-10-31T05:15:08.638Z,90.50
2022-10-31T05:16:18.961Z,90.50
2022-10-31T05:17:09.407Z,90.50
2022-10-31T05:18:19.402Z,90.50
2022-10-31T05:19:09.849Z,90.50
2022-10-31T05:20:12.714Z,91.30
2022-10-31T05:21:10.668Z,90.60
2022-10-31T05:21:47.617Z,90.50
2022-10-31T05:22:19.621Z,90.50
2022-10-31T05:22:55.081Z,90.50
2022-10-31T05:23:26.872Z,90.40
2022-10-31T05:23:59.496Z,90.60
2022-10-31T05:24:31.427Z,90.40
2022-10-31T05:25:03.780Z,90.40
2022-10-31T05:25:36.334Z,90.40
2022-10-31T05:26:09.524Z,90.50
2022-10-31T05:26:41.337Z,90.50
2022-10-31T05:27:13.207Z,90.40
2022-10-31T05:27:52.245Z,90.70
2022-10-31T05:28:24.155Z,90.50
2022-10-31T05:28:56.005Z,90.40
2022-10-31T05:29:28.528Z,90.50
2022-10-31T05:30:37.116Z,90.50
2022-10-31T05:31:11.671Z,90.60
2022-10-31T05:31:43.469Z,90.50
2022-10-31T05:32:26.153Z,90.60
2022-10-31T05:33:29.985Z,90.60
2022-10-31T05:34:10.689Z,90.60
2022-10-31T05:36:09.026Z,90.70
2022-10-31T05:36:46.604Z,90.60
2022-10-31T05:37:21.228Z,90.70
2022-10-31T05:37:53.218Z,90.70
2022-10-31T05:38:25.067Z,90.70
2022-10-31T05:38:57.673Z,90.70
2022-10-31T05:39:31.330Z,90.60
2022-10-31T05:40:11.335Z,90.60
2022-10-31T05:40:43.100Z,90.60
2022-10-31T05:41:15.047Z,90.50
2022-10-31T05:41:50.444Z,90.50
2022-10-31T05:42:27.531Z,90.60
2022-10-31T05:43:00.309Z,90.60
2022-10-31T05:43:32.661Z,90.60
2022-10-31T05:44:05.797Z,90.60
2022-10-31T05:44:44.295Z,90.60
2022-10-31T05:45:27.217Z,90.60
2022-10-31T05:46:03.825Z,90.70
2022-10-31T05:46:54.189Z,90.70
2022-10-31T05:47:28.953Z,90.70
2022-10-31T05:48:02.748Z,90.60
2022-10-31T05:49:10.009Z,90.60
2022-10-31T05:49:53.888Z,90.70
2022-10-31T05:50:57.721Z,90.80
2022-10-31T05:51:31.613Z,90.70
2022-10-31T05:52:43.699Z,90.50
2022-10-31T05:53:25.005Z,90.60
2022-10-31T05:53:56.766Z,90.60
2022-10-31T05:54:29.454Z,90.60
2022-10-31T05:55:01.257Z,90.60
2022-10-31T05:55:34.725Z,90.50
2022-10-31T05:56:26.974Z,91.40
2022-10-31T05:56:58.700Z,90.50
2022-10-31T05:57:34.889Z,90.60
2022-10-31T05:58:07.969Z,90.50
2022-10-31T05:58:41.768Z,90.50
2022-10-31T05:59:13.636Z,90.60
2022-10-31T05:59:48.888Z,90.60
2022-10-31T06:00:25.897Z,90.70
2022-10-31T06:00:57.588Z,90.70
2022-10-31T06:01:29.477Z,90.70
2022-10-31T06:02:04.125Z,90.70
2022-10-31T06:03:01.775Z,90.70
2022-10-31T06:03:53.634Z,90.80
2022-10-31T06:04:28.408Z,90.70
2022-10-31T06:05:00.220Z,90.70
2022-10-31T06:05:32.976Z,90.60
2022-10-31T06:06:04.964Z,90.70
2022-10-31T06:06:41.330Z,90.70
2022-10-31T06:07:13.081Z,90.80
2022-10-31T06:07:44.863Z,90.80
2022-10-31T06:08:17.162Z,90.80
2022-10-31T06:08:49.758Z,90.70
2022-10-31T06:09:25.468Z,90.60
2022-10-31T06:09:57.244Z,90.70
2022-10-31T06:10:29.582Z,90.80
2022-10-31T06:11:01.993Z,90.80
2022-10-31T06:11:52.186Z,90.80
2022-10-31T06:12:43.903Z,90.70
2022-10-31T06:13:21.033Z,90.80
2022-10-31T06:14:02.605Z,90.90
2022-10-31T06:14:51.863Z,90.90
2022-10-31T06:15:25.228Z,90.90
2022-10-31T06:15:58.269Z,90.80
2022-10-31T06:16:35.697Z,90.90
2022-10-31T06:17:26.001Z,90.90
2022-10-31T06:18:17.797Z,90.90
2022-10-31T06:18:54.915Z,91.00
2022-10-31T06:19:26.795Z,90.90
2022-10-31T06:19:58.606Z,90.90
2022-10-31T06:20:33.079Z,90.90
2022-10-31T06:21:09.063Z,90.90
2022-10-31T06:21:41.590Z,90.90
2022-10-31T06:22:13.574Z,90.90
2022-10-31T06:22:45.315Z,90.90
2022-10-31T06:23:18.064Z,90.80
2022-10-31T06:23:51.809Z,90.90
2022-10-31T06:24:43.530Z,90.90
2022-10-31T06:25:34.480Z,91.00
2022-10-31T06:26:06.276Z,90.90
2022-10-31T06:26:38.185Z,90.80
2022-10-31T06:27:09.956Z,90.80
2022-10-31T06:27:41.730Z,90.90
2022-10-31T06:28:19.208Z,90.90
2022-10-31T06:29:03.008Z,91.00
2022-10-31T06:30:05.460Z,91.00
2022-10-31T06:30:40.040Z,91.00
2022-10-31T06:31:11.822Z,90.90
2022-10-31T06:31:43.612Z,90.90
2022-10-31T06:32:16.832Z,91.00
2022-10-31T06:32:50.638Z,91.00
2022-10-31T06:33:22.395Z,90.90
2022-10-31T06:34:33.975Z,90.90
2022-10-31T06:35:06.169Z,90.90
2022-10-31T06:36:11.957Z,90.90
2022-10-31T06:36:43.725Z,90.90
2022-10-31T06:37:16.345Z,90.90
2022-10-31T06:37:54.824Z,90.80
2022-10-31T06:38:46.818Z,90.80
2022-10-31T06:39:19.694Z,90.90
2022-10-31T06:39:51.494Z,90.90
2022-10-31T06:40:23.988Z,90.80
2022-10-31T06:41:22.431Z,90.90
2022-10-31T06:41:55.032Z,90.90
2022-10-31T06:42:28.257Z,90.90
2022-10-31T06:43:01.367Z,90.90
2022-10-31T06:43:35.883Z,90.90
2022-10-31T06:44:34.112Z,90.90
2022-10-31T06:45:24.691Z,91.00
2022-10-31T06:46:26.321Z,90.90
2022-10-31T06:47:12.799Z,91.00
2022-10-31T06:48:16.514Z,91.00
2022-10-31T06:49:09.157Z,91.00
2022-10-31T06:49:59.779Z,91.00
2022-10-31T06:50:31.955Z,91.00
2022-10-31T06:51:03.805Z,90.90
2022-10-31T06:51:35.583Z,91.20
2022-10-31T06:52:07.447Z,91.00
2022-10-31T06:52:39.170Z,91.00
2022-10-31T06:53:11.732Z,90.90
2022-10-31T06:53:43.537Z,90.90
2022-10-31T06:54:17.819Z,91.00
2022-10-31T06:54:50.205Z,91.00
2022-10-31T06:55:23.608Z,90.90
2022-10-31T06:55:56.540Z,90.90
2022-10-31T06:56:28.729Z,90.90
2022-10-31T06:57:03.016Z,90.90
2022-10-31T06:57:34.801Z,90.90
2022-10-31T06:58:39.036Z,90.90
2022-10-31T06:59:12.848Z,90.80
2022-10-31T07:00:03.617Z,90.90
2022-10-31T07:00:43.543Z,90.90
2022-10-31T07:01:15.650Z,90.80
2022-10-31T07:01:47.654Z,90.80
2022-10-31T07:02:57.928Z,90.70
2022-10-31T07:03:29.724Z,90.80
2022-10-31T07:04:02.136Z,90.80
2022-10-31T07:04:36.910Z,90.80
2022-10-31T07:05:08.831Z,90.80
2022-10-31T07:05:41.339Z,90.80
2022-10-31T07:06:13.169Z,90.80
2022-10-31T07:06:50.883Z,90.80
2022-10-31T07:07:23.946Z,90.90
2022-10-31T07:07:58.725Z,90.90
2022-10-31T07:08:30.720Z,90.90
2022-10-31T07:09:36.264Z,90.80
2022-10-31T07:10:09.910Z,90.70
2022-10-31T07:11:07.616Z,90.80
2022-10-31T07:11:39.539Z,90.80
2022-10-31T07:12:11.293Z,90.80
2022-10-31T07:12:48.240Z,90.70
2022-10-31T07:13:25.589Z,90.70
2022-10-31T07:14:02.841Z,90.80
2022-10-31T07:14:34.542Z,90.70
2022-10-31T07:15:07.714Z,90.80
2022-10-31T07:15:41.806Z,90.70
2022-10-31T07:16:14.824Z,90.80
2022-10-31T07:16:51.890Z,90.80
2022-10-31T07:17:30.162Z,90.70
2022-10-31T07:18:06.853Z,90.70
2022-10-31T07:18:39.622Z,90.70
2022-10-31T07:19:11.551Z,90.70
2022-10-31T07:19:43.308Z,90.70
2022-10-31T07:20:17.086Z,90.60
2022-10-31T07:20:49.210Z,90.60
2022-10-31T07:21:21.560Z,90.70
2022-10-31T07:21:53.361Z,90.70
2022-10-31T07:22:25.106Z,90.80
2022-10-31T07:22:57.125Z,90.30
2022-10-31T07:23:29.532Z,90.80
2022-10-31T07:24:21.280Z,90.80
2022-10-31T07:25:28.516Z,90.80
2022-10-31T07:26:50.627Z,90.60
2022-10-31T07:27:22.435Z,90.70
2022-10-31T07:27:54.373Z,90.60
2022-10-31T07:28:27.379Z,90.70
2022-10-31T07:29:00.201Z,90.70
2022-10-31T07:29:33.420Z,90.70
2022-10-31T07:30:09.867Z,90.70
2022-10-31T07:30:43.366Z,90.70
2022-10-31T07:31:15.723Z,90.60
2022-10-31T07:31:47.884Z,90.60
2022-10-31T07:32:26.392Z,90.70
2022-10-31T07:33:02.648Z,90.70
2022-10-31T07:33:57.331Z,90.70
2022-10-31T07:34:31.847Z,90.80
2022-10-31T07:35:21.782Z,90.70
2022-10-31T07:36:01.361Z,90.80
2022-10-31T07:36:35.960Z,90.80
2022-10-31T07:37:09.360Z,90.80
2022-10-31T07:37:42.118Z,90.80
2022-10-31T07:38:47.367Z,90.80
2022-10-31T07:39:19.400Z,90.80
2022-10-31T07:39:51.439Z,90.80
2022-10-31T07:40:24.520Z,90.80
2022-10-31T07:40:58.154Z,90.70
2022-10-31T07:41:31.272Z,90.60
2022-10-31T07:42:03.028Z,90.60
2022-10-31T07:42:39.684Z,90.60
2022-10-31T07:43:14.973Z,90.70
2022-10-31T07:44:09.543Z,90.70
2022-10-31T07:45:16.457Z,90.80
2022-10-31T07:46:23.484Z,90.80
2022-10-31T07:47:24.325Z,90.80
2022-10-31T07:48:31.346Z,90.90
2022-10-31T07:49:21.804Z,91.50
2022-10-31T07:50:14.887Z,90.90
2022-10-31T07:51:07.921Z,90.90
2022-10-31T07:51:58.462Z,90.90
2022-10-31T07:52:49.605Z,91.00
2022-10-31T07:53:50.389Z,91.00
2022-10-31T07:54:35.272Z,91.00
2022-10-31T07:55:07.935Z,91.00
2022-10-31T07:55:42.070Z,90.90
2022-10-31T07:56:47.986Z,90.80
2022-10-31T07:57:24.131Z,90.90
2022-10-31T07:58:08.864Z,90.90
2022-10-31T07:58:43.626Z,90.80
2022-10-31T07:59:15.346Z,90.80
2022-10-31T07:59:47.117Z,90.80
2022-10-31T08:00:19.132Z,90.70
2022-10-31T08:00:55.127Z,90.80
2022-10-31T08:01:36.767Z,90.60
2022-10-31T08:02:28.483Z,90.60
2022-10-31T08:03:32.605Z,90.80
2022-10-31T08:04:23.157Z,90.90
2022-10-31T08:05:13.445Z,91.90
2022-10-31T08:06:08.508Z,90.90
2022-10-31T08:07:49.285Z,90.90
2022-10-31T08:08:30.332Z,90.90
2022-10-31T08:09:03.016Z,90.90
2022-10-31T08:09:36.181Z,90.90
2022-10-31T08:10:14.757Z,90.90
2022-10-31T08:10:46.585Z,90.90
2022-10-31T08:11:18.820Z,90.90
2022-10-31T08:11:50.692Z,90.90
2022-10-31T08:12:22.806Z,90.80
2022-10-31T08:13:33.731Z,90.80
2022-10-31T08:14:05.764Z,90.90
2022-10-31T08:14:37.524Z,90.90